sensor_id;sensor_type;location;lat;lon;timestamp;temperature;humidity
16477;DHT22;8349;50.928;6.376;2023-02-21T04:00:47;7.10;99.90
16477;DHT22;8349;50.928;6.376;2023-02-21T04:03:16;7.00;99.90
16477;DHT22;8349;50.928;6.376;2023-02-21T04:05:50;7.00;99.90
16477;DHT22;8349;50.928;6.376;2023-02-21T04:08:16;7.00;99.90
16477;DHT22;8349;50.928;6.376;2023-02-21T04:10:44;7.00;99.90
16477;DHT22;8349;50.928;6.376;2023-02-21T04:13:11;7.00;99.90
16477;DHT22;8349;50.928;6.376;2023-02-21T04:15:42;7.00;99.90
16477;DHT22;8349;50.928;6.376;2023-02-21T04:18:10;7.00;99.90
16477;DHT22;8349;50.928;6.376;2023-02-21T04:20:37;7.00;99.90
16477;DHT22;8349;50.928;6.376;2023-02-21T04:23:07;7.00;99.90
16477;DHT22;8349;50.928;6.376;2023-02-21T04:25:35;7.00;99.90
16477;DHT22;8349;50.928;6.376;2023-02-21T04:28:08;7.00;99.90
16477;DHT22;8349;50.928;6.376;2023-02-21T04:30:34;6.90;99.90
16477;DHT22;8349;50.928;6.376;2023-02-21T04:33:01;6.90;99.90
16477;DHT22;8349;50.928;6.376;2023-02-21T04:35:29;6.90;99.90
16477;DHT22;8349;50.928;6.376;2023-02-21T04:38:01;6.90;99.90
16477;DHT22;8349;50.928;6.376;2023-02-21T04:40:28;6.90;99.90
16477;DHT22;8349;50.928;6.376;2023-02-21T04:42:54;6.90;99.90
16477;DHT22;8349;50.928;6.376;2023-02-21T04:45:21;6.80;99.90
16477;DHT22;8349;50.928;6.376;2023-02-21T04:47:48;6.80;99.90
16477;DHT22;8349;50.928;6.376;2023-02-21T04:50:15;6.80;99.90
16477;DHT22;8349;50.928;6.376;2023-02-21T04:52:43;6.80;99.90
16477;DHT22;8349;50.928;6.376;2023-02-21T04:55:10;6.80;99.90
16477;DHT22;8349;50.928;6.376;2023-02-21T04:57:36;6.80;99.90
16477;DHT22;8349;50.928;6.376;2023-02-21T05:00:03;6.70;99.90
16477;DHT22;8349;50.928;6.376;2023-02-21T05:02:32;6.80;99.90
16477;DHT22;8349;50.928;6.376;2023-02-21T05:04:59;6.80;99.90
16477;DHT22;8349;50.928;6.376;2023-02-21T05:07:26;6.80;99.90
16477;DHT22;8349;50.928;6.376;2023-02-21T05:09:54;6.80;99.90
16477;DHT22;8349;50.928;6.376;2023-02-21T05:12:21;6.70;99.90
16477;DHT22;8349;50.928;6.376;2023-02-21T05:14:48;6.70;99.90
16477;DHT22;8349;50.928;6.376;2023-02-21T05:17:14;6.80;99.90
16477;DHT22;8349;50.928;6.376;2023-02-21T05:19:41;6.70;99.90
16477;DHT22;8349;50.928;6.376;2023-02-21T05:22:08;6.70;99.90
16477;DHT22;8349;50.928;6.376;2023-02-21T05:24:39;6.70;99.90
16477;DHT22;8349;50.928;6.376;2023-02-21T05:27:08;6.70;99.90
16477;DHT22;8349;50.928;6.376;2023-02-21T05:29:35;6.70;99.90
16477;DHT22;8349;50.928;6.376;2023-02-21T05:32:02;6.70;99.90
16477;DHT22;8349;50.928;6.376;2023-02-21T05:34:29;6.70;99.90
16477;DHT22;8349;50.928;6.376;2023-02-21T05:36:56;6.70;99.90
16477;DHT22;8349;50.928;6.376;2023-02-21T05:39:23;6.70;99.90
16477;DHT22;8349;50.928;6.376;2023-02-21T05:41:50;6.70;99.90
16477;DHT22;8349;50.928;6.376;2023-02-21T05:44:18;6.70;99.90
16477;DHT22;8349;50.928;6.376;2023-02-21T05:46:45;6.60;99.90
16477;DHT22;8349;50.928;6.376;2023-02-21T05:49:12;6.70;99.90
16477;DHT22;8349;50.928;6.376;2023-02-21T05:51:40;6.70;99.90
16477;DHT22;8349;50.928;6.376;2023-02-21T05:54:07;6.70;99.90
16477;DHT22;8349;50.928;6.376;2023-02-21T05:56:37;6.70;99.90
16477;DHT22;8349;50.928;6.376;2023-02-21T05:59:05;6.70;99.90
16477;DHT22;8349;50.928;6.376;2023-02-21T06:01:33;6.60;99.90
16477;DHT22;8349;50.928;6.376;2023-02-21T06:04:00;6.60;99.90
16477;DHT22;8349;50.928;6.376;2023-02-21T06:06:26;6.60;99.90
16477;DHT22;8349;50.928;6.376;2023-02-21T06:08:53;6.50;99.90
16477;DHT22;8349;50.928;6.376;2023-02-21T06:11:23;6.50;99.90
16477;DHT22;8349;50.928;6.376;2023-02-21T06:13:51;6.50;99.90
16477;DHT22;8349;50.928;6.376;2023-02-21T06:16:18;6.50;99.90
16477;DHT22;8349;50.928;6.376;2023-02-21T06:18:49;6.50;99.90
16477;DHT22;8349;50.928;6.376;2023-02-21T06:21:16;6.50;99.90
16477;DHT22;8349;50.928;6.376;2023-02-21T06:23:43;6.50;99.90
16477;DHT22;8349;50.928;6.376;2023-02-21T06:26:09;6.50;99.90
16477;DHT22;8349;50.928;6.376;2023-02-21T06:28:36;6.50;99.90
16477;DHT22;8349;50.928;6.376;2023-02-21T06:31:03;6.50;99.90
16477;DHT22;8349;50.928;6.376;2023-02-21T06:33:30;6.50;99.90
16477;DHT22;8349;50.928;6.376;2023-02-21T06:36:01;6.50;99.90
16477;DHT22;8349;50.928;6.376;2023-02-21T06:38:28;6.50;99.90
16477;DHT22;8349;50.928;6.376;2023-02-21T06:40:55;6.50;99.90
16477;DHT22;8349;50.928;6.376;2023-02-21T06:43:22;6.60;99.90
16477;DHT22;8349;50.928;6.376;2023-02-21T06:45:49;6.60;99.90
16477;DHT22;8349;50.928;6.376;2023-02-21T06:48:16;6.50;99.90
16477;DHT22;8349;50.928;6.376;2023-02-21T06:50:43;6.50;99.90
16477;DHT22;8349;50.928;6.376;2023-02-21T06:53:11;6.50;99.90
16477;DHT22;8349;50.928;6.376;2023-02-21T06:55:38;6.50;99.90
16477;DHT22;8349;50.928;6.376;2023-02-21T06:58:04;6.50;99.90
16477;DHT22;8349;50.928;6.376;2023-02-21T07:00:31;6.50;99.90
16477;DHT22;8349;50.928;6.376;2023-02-21T07:02:58;6.50;99.90
16477;DHT22;8349;50.928;6.376;2023-02-21T07:05:24;6.50;99.90
16477;DHT22;8349;50.928;6.376;2023-02-21T07:07:51;6.50;99.90
16477;DHT22;8349;50.928;6.376;2023-02-21T07:10:19;6.50;99.90
16477;DHT22;8349;50.928;6.376;2023-02-21T07:12:46;6.50;99.90
16477;DHT22;8349;50.928;6.376;2023-02-21T07:15:13;6.50;99.90
16477;DHT22;8349;50.928;6.376;2023-02-21T07:17:39;6.50;99.90
16477;DHT22;8349;50.928;6.376;2023-02-21T07:20:07;6.50;99.90
16477;DHT22;8349;50.928;6.376;2023-02-21T07:22:34;6.50;99.90
16477;DHT22;8349;50.928;6.376;2023-02-21T07:25:00;6.50;99.90
16477;DHT22;8349;50.928;6.376;2023-02-21T07:27:28;6.50;99.90
16477;DHT22;8349;50.928;6.376;2023-02-21T07:29:55;6.50;99.90
16477;DHT22;8349;50.928;6.376;2023-02-21T07:32:22;6.50;99.90
16477;DHT22;8349;50.928;6.376;2023-02-21T07:34:48;6.50;99.90
16477;DHT22;8349;50.928;6.376;2023-02-21T07:37:15;6.50;99.90
16477;DHT22;8349;50.928;6.376;2023-02-21T07:39:42;6.60;99.90
16477;DHT22;8349;50.928;6.376;2023-02-21T07:42:09;6.60;99.90
16477;DHT22;8349;50.928;6.376;2023-02-21T07:44:38;6.60;99.90
16477;DHT22;8349;50.928;6.376;2023-02-21T07:47:05;6.60;99.90
16477;DHT22;8349;50.928;6.376;2023-02-21T07:49:35;6.60;99.90
16477;DHT22;8349;50.928;6.376;2023-02-21T07:52:02;6.60;99.90
16477;DHT22;8349;50.928;6.376;2023-02-21T07:54:29;6.60;99.90
16477;DHT22;8349;50.928;6.376;2023-02-21T07:56:56;6.60;99.90
16477;DHT22;8349;50.928;6.376;2023-02-21T07:59:23;6.70;99.90
16477;DHT22;8349;50.928;6.376;2023-02-21T08:01:51;6.70;99.90
16477;DHT22;8349;50.928;6.376;2023-02-21T08:04:18;6.80;99.90
16477;DHT22;8349;50.928;6.376;2023-02-21T08:06:46;6.70;99.90
16477;DHT22;8349;50.928;6.376;2023-02-21T08:09:13;6.80;99.90
16477;DHT22;8349;50.928;6.376;2023-02-21T08:11:40;6.80;99.90
16477;DHT22;8349;50.928;6.376;2023-02-21T08:14:07;6.80;99.90
16477;DHT22;8349;50.928;6.376;2023-02-21T08:16:33;6.80;99.90
16477;DHT22;8349;50.928;6.376;2023-02-21T08:19:02;6.80;99.90
16477;DHT22;8349;50.928;6.376;2023-02-21T08:21:29;6.80;99.90
16477;DHT22;8349;50.928;6.376;2023-02-21T08:23:56;6.80;99.90
16477;DHT22;8349;50.928;6.376;2023-02-21T08:26:23;6.90;99.90
16477;DHT22;8349;50.928;6.376;2023-02-21T08:28:50;6.80;99.90
16477;DHT22;8349;50.928;6.376;2023-02-21T08:31:17;6.80;99.90
16477;DHT22;8349;50.928;6.376;2023-02-21T08:33:44;6.80;99.90
16477;DHT22;8349;50.928;6.376;2023-02-21T08:36:12;6.80;99.90
16477;DHT22;8349;50.928;6.376;2023-02-21T08:38:39;6.90;99.90
16477;DHT22;8349;50.928;6.376;2023-02-21T08:41:05;6.90;99.90
16477;DHT22;8349;50.928;6.376;2023-02-21T08:43:32;6.90;99.90
16477;DHT22;8349;50.928;6.376;2023-02-21T08:45:59;7.00;99.90
16477;DHT22;8349;50.928;6.376;2023-02-21T08:48:27;7.10;99.90
16477;DHT22;8349;50.928;6.376;2023-02-21T08:50:53;7.00;99.90
16477;DHT22;8349;50.928;6.376;2023-02-21T08:53:22;7.10;99.90
16477;DHT22;8349;50.928;6.376;2023-02-21T08:55:48;7.10;99.90
16477;DHT22;8349;50.928;6.376;2023-02-21T08:58:15;7.00;99.90
16477;DHT22;8349;50.928;6.376;2023-02-21T09:00:42;7.10;99.90
16477;DHT22;8349;50.928;6.376;2023-02-21T09:03:09;7.10;99.90
16477;DHT22;8349;50.928;6.376;2023-02-21T09:05:35;7.10;99.90
16477;DHT22;8349;50.928;6.376;2023-02-21T09:08:02;7.00;99.90
16477;DHT22;8349;50.928;6.376;2023-02-21T09:10:31;7.00;99.90
16477;DHT22;8349;50.928;6.376;2023-02-21T09:12:58;6.90;99.90
16477;DHT22;8349;50.928;6.376;2023-02-21T09:15:25;6.90;99.90
16477;DHT22;8349;50.928;6.376;2023-02-21T09:17:52;6.90;99.90
16477;DHT22;8349;50.928;6.376;2023-02-21T09:20:20;6.90;99.90
16477;DHT22;8349;50.928;6.376;2023-02-21T09:22:47;7.00;99.90
16477;DHT22;8349;50.928;6.376;2023-02-21T09:25:15;7.00;99.90
16477;DHT22;8349;50.928;6.376;2023-02-21T09:27:43;7.00;99.90
16477;DHT22;8349;50.928;6.376;2023-02-21T09:30:11;7.00;99.90
16477;DHT22;8349;50.928;6.376;2023-02-21T09:32:38;7.00;99.90
16477;DHT22;8349;50.928;6.376;2023-02-21T09:35:05;7.10;99.90
16477;DHT22;8349;50.928;6.376;2023-02-21T09:37:32;7.10;99.90
16477;DHT22;8349;50.928;6.376;2023-02-21T09:39:59;7.20;99.90
16477;DHT22;8349;50.928;6.376;2023-02-21T09:42:27;7.30;99.90
16477;DHT22;8349;50.928;6.376;2023-02-21T09:44:56;7.30;99.90
16477;DHT22;8349;50.928;6.376;2023-02-21T09:47:25;7.30;99.90
16477;DHT22;8349;50.928;6.376;2023-02-21T09:49:54;7.30;99.90
16477;DHT22;8349;50.928;6.376;2023-02-21T09:52:24;7.30;99.90
16477;DHT22;8349;50.928;6.376;2023-02-21T09:54:53;7.10;99.90
16477;DHT22;8349;50.928;6.376;2023-02-21T09:57:22;7.20;99.90
16477;DHT22;8349;50.928;6.376;2023-02-21T09:59:48;7.20;99.90
16477;DHT22;8349;50.928;6.376;2023-02-21T10:02:21;7.20;99.90
16477;DHT22;8349;50.928;6.376;2023-02-21T10:04:54;7.20;99.90
16477;DHT22;8349;50.928;6.376;2023-02-21T10:07:25;7.40;99.90
16477;DHT22;8349;50.928;6.376;2023-02-21T10:09:53;7.40;99.90
16477;DHT22;8349;50.928;6.376;2023-02-21T10:12:23;7.50;99.90
16477;DHT22;8349;50.928;6.376;2023-02-21T10:15:00;7.40;99.90
16477;DHT22;8349;50.928;6.376;2023-02-21T10:17:30;7.40;99.90
16477;DHT22;8349;50.928;6.376;2023-02-21T10:20:00;7.50;99.90
16477;DHT22;8349;50.928;6.376;2023-02-21T10:22:30;7.50;99.90
16477;DHT22;8349;50.928;6.376;2023-02-21T10:24:58;7.50;99.90
16477;DHT22;8349;50.928;6.376;2023-02-21T10:27:29;7.50;99.90
16477;DHT22;8349;50.928;6.376;2023-02-21T10:29:58;7.50;99.90
16477;DHT22;8349;50.928;6.376;2023-02-21T10:32:25;7.50;99.90
16477;DHT22;8349;50.928;6.376;2023-02-21T10:34:54;7.60;99.90
16477;DHT22;8349;50.928;6.376;2023-02-21T10:37:25;7.70;99.90
16477;DHT22;8349;50.928;6.376;2023-02-21T10:39:54;7.50;99.90
16477;DHT22;8349;50.928;6.376;2023-02-21T10:42:24;7.40;99.90
16477;DHT22;8349;50.928;6.376;2023-02-21T10:44:52;7.40;99.90
16477;DHT22;8349;50.928;6.376;2023-02-21T10:47:21;7.50;99.90
16477;DHT22;8349;50.928;6.376;2023-02-21T10:49:49;7.60;99.90
16477;DHT22;8349;50.928;6.376;2023-02-21T10:52:19;7.50;99.90
16477;DHT22;8349;50.928;6.376;2023-02-21T10:54:58;7.50;99.90
16477;DHT22;8349;50.928;6.376;2023-02-21T10:57:25;7.50;99.90
16477;DHT22;8349;50.928;6.376;2023-02-21T10:59:52;7.70;99.90
16477;DHT22;8349;50.928;6.376;2023-02-21T11:02:24;7.90;99.90
16477;DHT22;8349;50.928;6.376;2023-02-21T11:04:51;8.00;99.90
16477;DHT22;8349;50.928;6.376;2023-02-21T11:07:21;8.10;99.90
16477;DHT22;8349;50.928;6.376;2023-02-21T11:09:49;8.20;99.90
16477;DHT22;8349;50.928;6.376;2023-02-21T11:12:17;8.20;99.90
16477;DHT22;8349;50.928;6.376;2023-02-21T11:14:45;8.30;99.90
16477;DHT22;8349;50.928;6.376;2023-02-21T11:17:28;8.30;99.90
16477;DHT22;8349;50.928;6.376;2023-02-21T11:19:57;8.40;99.90
16477;DHT22;8349;50.928;6.376;2023-02-21T11:22:34;8.40;99.90
16477;DHT22;8349;50.928;6.376;2023-02-21T11:25:02;8.50;99.90
16477;DHT22;8349;50.928;6.376;2023-02-21T11:27:31;8.70;99.90
16477;DHT22;8349;50.928;6.376;2023-02-21T11:29:58;8.90;99.90
16477;DHT22;8349;50.928;6.376;2023-02-21T11:32:29;9.00;99.90
16477;DHT22;8349;50.928;6.376;2023-02-21T11:35:05;9.10;99.90
16477;DHT22;8349;50.928;6.376;2023-02-21T11:37:34;9.40;99.90
16477;DHT22;8349;50.928;6.376;2023-02-21T11:40:20;9.60;99.90
16477;DHT22;8349;50.928;6.376;2023-02-21T11:42:47;9.80;99.90
16477;DHT22;8349;50.928;6.376;2023-02-21T11:45:17;10.00;99.90
16477;DHT22;8349;50.928;6.376;2023-02-21T11:47:49;10.20;99.90
16477;DHT22;8349;50.928;6.376;2023-02-21T11:50:20;10.60;99.90
16477;DHT22;8349;50.928;6.376;2023-02-21T11:52:51;10.80;99.90
16477;DHT22;8349;50.928;6.376;2023-02-21T11:55:22;11.10;99.90
16477;DHT22;8349;50.928;6.376;2023-02-21T11:57:51;11.10;99.90
16477;DHT22;8349;50.928;6.376;2023-02-21T12:00:22;11.10;99.90
16477;DHT22;8349;50.928;6.376;2023-02-21T12:02:54;11.50;99.90
16477;DHT22;8349;50.928;6.376;2023-02-21T12:05:28;13.20;99.90
16477;DHT22;8349;50.928;6.376;2023-02-21T12:08:04;15.40;99.90
16477;DHT22;8349;50.928;6.376;2023-02-21T12:10:39;16.50;99.90
16477;DHT22;8349;50.928;6.376;2023-02-21T12:13:09;16.20;99.90
16477;DHT22;8349;50.928;6.376;2023-02-21T12:15:45;15.60;99.90
16477;DHT22;8349;50.928;6.376;2023-02-21T12:18:20;15.10;99.90
16477;DHT22;8349;50.928;6.376;2023-02-21T12:20:56;15.00;99.90
16477;DHT22;8349;50.928;6.376;2023-02-21T12:23:28;14.90;99.90
16477;DHT22;8349;50.928;6.376;2023-02-21T12:26:02;15.00;99.90
16477;DHT22;8349;50.928;6.376;2023-02-21T12:28:36;15.60;99.90
16477;DHT22;8349;50.928;6.376;2023-02-21T12:31:11;16.80;99.90
16477;DHT22;8349;50.928;6.376;2023-02-21T12:33:43;18.90;99.90
16477;DHT22;8349;50.928;6.376;2023-02-21T12:36:17;18.90;99.90
16477;DHT22;8349;50.928;6.376;2023-02-21T12:38:51;18.00;99.90
16477;DHT22;8349;50.928;6.376;2023-02-21T12:41:22;17.50;99.90
16477;DHT22;8349;50.928;6.376;2023-02-21T12:43:53;17.40;99.90
16477;DHT22;8349;50.928;6.376;2023-02-21T12:46:24;17.40;99.90
16477;DHT22;8349;50.928;6.376;2023-02-21T12:48:53;17.90;99.90
16477;DHT22;8349;50.928;6.376;2023-02-21T12:51:23;18.60;99.90
16477;DHT22;8349;50.928;6.376;2023-02-21T12:53:54;18.20;99.90
16477;DHT22;8349;50.928;6.376;2023-02-21T12:56:23;18.00;99.90
16477;DHT22;8349;50.928;6.376;2023-02-21T12:58:51;17.90;99.90
16477;DHT22;8349;50.928;6.376;2023-02-21T13:01:20;19.20;99.90
16477;DHT22;8349;50.928;6.376;2023-02-21T13:03:51;21.60;99.90
16477;DHT22;8349;50.928;6.376;2023-02-21T13:06:20;24.40;99.90
16477;DHT22;8349;50.928;6.376;2023-02-21T13:08:51;25.40;99.90
16477;DHT22;8349;50.928;6.376;2023-02-21T13:11:23;25.10;99.90
16477;DHT22;8349;50.928;6.376;2023-02-21T13:13:51;25.50;99.90
16477;DHT22;8349;50.928;6.376;2023-02-21T13:16:18;25.50;99.90
16477;DHT22;8349;50.928;6.376;2023-02-21T13:18:46;25.40;99.90
16477;DHT22;8349;50.928;6.376;2023-02-21T13:21:16;25.50;99.90
16477;DHT22;8349;50.928;6.376;2023-02-21T13:23:49;25.20;99.90
16477;DHT22;8349;50.928;6.376;2023-02-21T13:26:25;24.40;99.90
16477;DHT22;8349;50.928;6.376;2023-02-21T13:28:55;25.10;99.90
16477;DHT22;8349;50.928;6.376;2023-02-21T13:31:22;24.50;99.90
16477;DHT22;8349;50.928;6.376;2023-02-21T13:33:50;24.30;99.90
16477;DHT22;8349;50.928;6.376;2023-02-21T13:36:22;23.80;99.90
16477;DHT22;8349;50.928;6.376;2023-02-21T13:39:00;23.80;99.90
16477;DHT22;8349;50.928;6.376;2023-02-21T13:41:32;24.40;99.90
16477;DHT22;8349;50.928;6.376;2023-02-21T13:43:59;24.60;99.90
16477;DHT22;8349;50.928;6.376;2023-02-21T13:49:37;23.40;99.90
16477;DHT22;8349;50.928;6.376;2023-02-21T13:52:15;23.40;99.90
16477;DHT22;8349;50.928;6.376;2023-02-21T13:57:31;23.60;99.90
16477;DHT22;8349;50.928;6.376;2023-02-21T13:59:58;22.90;99.90
16477;DHT22;8349;50.928;6.376;2023-02-21T14:02:26;22.70;99.90
16477;DHT22;8349;50.928;6.376;2023-02-21T14:04:59;22.90;99.90
16477;DHT22;8349;50.928;6.376;2023-02-21T14:13:07;22.20;99.90
16477;DHT22;8349;50.928;6.376;2023-02-21T14:15:43;22.00;99.90
16477;DHT22;8349;50.928;6.376;2023-02-21T14:18:14;21.90;99.90
16477;DHT22;8349;50.928;6.376;2023-02-21T14:20:44;22.10;99.90
16477;DHT22;8349;50.928;6.376;2023-02-21T14:23:13;21.50;99.90
16477;DHT22;8349;50.928;6.376;2023-02-21T14:25:41;21.60;99.90
16477;DHT22;8349;50.928;6.376;2023-02-21T14:31:06;21.30;99.90
16477;DHT22;8349;50.928;6.376;2023-02-21T14:33:36;21.80;99.90
16477;DHT22;8349;50.928;6.376;2023-02-21T14:36:05;21.90;99.90
16477;DHT22;8349;50.928;6.376;2023-02-21T14:38:34;22.10;99.90
16477;DHT22;8349;50.928;6.376;2023-02-21T14:41:06;21.70;99.90
16477;DHT22;8349;50.928;6.376;2023-02-21T14:43:42;21.90;99.90
16477;DHT22;8349;50.928;6.376;2023-02-21T14:46:31;22.00;99.90
16477;DHT22;8349;50.928;6.376;2023-02-21T14:49:14;21.40;99.90
16477;DHT22;8349;50.928;6.376;2023-02-21T14:51:54;21.70;99.90
16477;DHT22;8349;50.928;6.376;2023-02-21T14:54:28;21.10;99.90
16477;DHT22;8349;50.928;6.376;2023-02-21T14:57:11;20.50;99.90
16477;DHT22;8349;50.928;6.376;2023-02-21T14:59:42;20.40;99.90
16477;DHT22;8349;50.928;6.376;2023-02-21T15:02:19;20.20;99.90
16477;DHT22;8349;50.928;6.376;2023-02-21T15:04:50;19.30;99.90
16477;DHT22;8349;50.928;6.376;2023-02-21T15:07:20;18.80;99.90
16477;DHT22;8349;50.928;6.376;2023-02-21T15:10:06;18.50;99.90
16477;DHT22;8349;50.928;6.376;2023-02-21T15:12:40;18.50;99.90
16477;DHT22;8349;50.928;6.376;2023-02-21T15:15:11;18.80;99.90
16477;DHT22;8349;50.928;6.376;2023-02-21T15:17:41;18.30;99.90
16477;DHT22;8349;50.928;6.376;2023-02-21T15:20:12;18.50;99.90
16477;DHT22;8349;50.928;6.376;2023-02-21T15:22:39;18.50;99.90
16477;DHT22;8349;50.928;6.376;2023-02-21T15:25:14;18.40;99.90
16477;DHT22;8349;50.928;6.376;2023-02-21T15:27:52;18.50;99.90
16477;DHT22;8349;50.928;6.376;2023-02-21T15:30:19;18.30;99.90
16477;DHT22;8349;50.928;6.376;2023-02-21T15:32:54;18.40;99.90
16477;DHT22;8349;50.928;6.376;2023-02-21T15:35:22;18.20;99.90
16477;DHT22;8349;50.928;6.376;2023-02-21T15:37:50;17.80;99.90
16477;DHT22;8349;50.928;6.376;2023-02-21T15:40:18;17.80;99.90
16477;DHT22;8349;50.928;6.376;2023-02-21T15:42:46;17.40;99.90
16477;DHT22;8349;50.928;6.376;2023-02-21T15:45:15;17.00;99.90
16477;DHT22;8349;50.928;6.376;2023-02-21T15:47:44;16.50;99.90
16477;DHT22;8349;50.928;6.376;2023-02-21T15:50:13;16.20;99.90
16477;DHT22;8349;50.928;6.376;2023-02-21T15:52:43;16.10;99.90
16477;DHT22;8349;50.928;6.376;2023-02-21T15:55:11;16.10;99.90
16477;DHT22;8349;50.928;6.376;2023-02-21T15:57:38;16.00;99.90
16477;DHT22;8349;50.928;6.376;2023-02-21T16:00:16;15.50;99.90
16477;DHT22;8349;50.928;6.376;2023-02-21T16:02:42;15.10;99.90
16477;DHT22;8349;50.928;6.376;2023-02-21T16:05:22;14.90;99.90
16477;DHT22;8349;50.928;6.376;2023-02-21T16:07:49;14.70;99.90
16477;DHT22;8349;50.928;6.376;2023-02-21T16:10:19;14.70;99.90
16477;DHT22;8349;50.928;6.376;2023-02-21T16:12:52;14.30;99.90
16477;DHT22;8349;50.928;6.376;2023-02-21T16:15:21;14.10;99.90
16477;DHT22;8349;50.928;6.376;2023-02-21T16:17:51;13.90;99.90
16477;DHT22;8349;50.928;6.376;2023-02-21T16:20:19;13.40;99.90
16477;DHT22;8349;50.928;6.376;2023-02-21T16:22:49;13.10;99.90
16477;DHT22;8349;50.928;6.376;2023-02-21T16:25:19;12.90;99.90
16477;DHT22;8349;50.928;6.376;2023-02-21T16:27:48;12.70;99.90
16477;DHT22;8349;50.928;6.376;2023-02-21T16:30:15;12.30;99.90
16477;DHT22;8349;50.928;6.376;2023-02-21T16:32:43;11.90;99.90
16477;DHT22;8349;50.928;6.376;2023-02-21T16:35:11;11.50;99.90
16477;DHT22;8349;50.928;6.376;2023-02-21T16:37:38;11.20;99.90
16477;DHT22;8349;50.928;6.376;2023-02-21T16:40:12;10.90;99.90
16477;DHT22;8349;50.928;6.376;2023-02-21T16:42:39;10.60;99.90
16477;DHT22;8349;50.928;6.376;2023-02-21T16:45:06;10.50;99.90
16477;DHT22;8349;50.928;6.376;2023-02-21T16:47:33;10.40;99.90
16477;DHT22;8349;50.928;6.376;2023-02-21T16:50:00;10.20;99.90
16477;DHT22;8349;50.928;6.376;2023-02-21T16:52:26;10.10;99.90
16477;DHT22;8349;50.928;6.376;2023-02-21T16:54:53;9.90;99.90
16477;DHT22;8349;50.928;6.376;2023-02-21T16:57:21;9.80;99.90
16477;DHT22;8349;50.928;6.376;2023-02-21T16:59:48;9.70;99.90
16477;DHT22;8349;50.928;6.376;2023-02-21T17:02:15;9.60;99.90
16477;DHT22;8349;50.928;6.376;2023-02-21T17:04:42;9.40;99.90
16477;DHT22;8349;50.928;6.376;2023-02-21T17:07:08;9.30;99.90
16477;DHT22;8349;50.928;6.376;2023-02-21T17:09:36;9.20;99.90
16477;DHT22;8349;50.928;6.376;2023-02-21T17:12:05;9.10;99.90
16477;DHT22;8349;50.928;6.376;2023-02-21T17:14:33;9.00;99.90
16477;DHT22;8349;50.928;6.376;2023-02-21T17:17:00;8.90;99.90
16477;DHT22;8349;50.928;6.376;2023-02-21T17:19:26;8.90;99.90
16477;DHT22;8349;50.928;6.376;2023-02-21T17:21:53;8.80;99.90
16477;DHT22;8349;50.928;6.376;2023-02-21T17:24:22;8.70;99.90
16477;DHT22;8349;50.928;6.376;2023-02-21T17:26:51;8.70;99.90
16477;DHT22;8349;50.928;6.376;2023-02-21T17:29:18;8.50;99.90
16477;DHT22;8349;50.928;6.376;2023-02-21T17:31:46;8.50;99.90
16477;DHT22;8349;50.928;6.376;2023-02-21T17:34:16;8.50;99.90
16477;DHT22;8349;50.928;6.376;2023-02-21T17:36:43;8.40;99.90
16477;DHT22;8349;50.928;6.376;2023-02-21T17:39:10;8.30;99.90
16477;DHT22;8349;50.928;6.376;2023-02-21T17:41:41;8.20;99.90
16477;DHT22;8349;50.928;6.376;2023-02-21T17:44:10;8.10;99.90
16477;DHT22;8349;50.928;6.376;2023-02-21T17:46:36;8.10;99.90
16477;DHT22;8349;50.928;6.376;2023-02-21T17:49:04;8.00;99.90
16477;DHT22;8349;50.928;6.376;2023-02-21T17:51:31;7.90;99.90
16477;DHT22;8349;50.928;6.376;2023-02-21T17:53:58;7.90;99.90
16477;DHT22;8349;50.928;6.376;2023-02-21T17:56:25;7.90;99.90
16477;DHT22;8349;50.928;6.376;2023-02-21T17:58:53;7.80;99.90
16477;DHT22;8349;50.928;6.376;2023-02-21T18:01:20;7.70;99.90
16477;DHT22;8349;50.928;6.376;2023-02-21T18:03:47;7.60;99.90
16477;DHT22;8349;50.928;6.376;2023-02-21T18:06:15;7.60;99.90
16477;DHT22;8349;50.928;6.376;2023-02-21T18:08:42;7.50;99.90
16477;DHT22;8349;50.928;6.376;2023-02-21T18:11:12;7.50;99.90
16477;DHT22;8349;50.928;6.376;2023-02-21T18:13:39;7.40;99.90
16477;DHT22;8349;50.928;6.376;2023-02-21T18:16:06;7.40;99.90
16477;DHT22;8349;50.928;6.376;2023-02-21T18:18:33;7.30;99.90
16477;DHT22;8349;50.928;6.376;2023-02-21T18:21:00;7.30;99.90
16477;DHT22;8349;50.928;6.376;2023-02-21T18:23:29;7.40;99.90
16477;DHT22;8349;50.928;6.376;2023-02-21T18:25:56;7.30;99.90
16477;DHT22;8349;50.928;6.376;2023-02-21T18:28:23;7.40;99.90
16477;DHT22;8349;50.928;6.376;2023-02-21T18:30:50;7.50;99.90
16477;DHT22;8349;50.928;6.376;2023-02-21T18:33:18;7.50;99.90
16477;DHT22;8349;50.928;6.376;2023-02-21T18:35:45;7.50;99.90
16477;DHT22;8349;50.928;6.376;2023-02-21T18:38:12;7.60;99.90
16477;DHT22;8349;50.928;6.376;2023-02-21T18:40:42;7.60;99.90
16477;DHT22;8349;50.928;6.376;2023-02-21T18:43:13;7.70;99.90
16477;DHT22;8349;50.928;6.376;2023-02-21T18:45:40;7.70;99.90
16477;DHT22;8349;50.928;6.376;2023-02-21T18:48:07;7.70;99.90
16477;DHT22;8349;50.928;6.376;2023-02-21T18:50:34;7.70;99.90
16477;DHT22;8349;50.928;6.376;2023-02-21T18:53:01;7.80;99.90
16477;DHT22;8349;50.928;6.376;2023-02-21T18:55:30;7.80;99.90
16477;DHT22;8349;50.928;6.376;2023-02-21T18:57:58;7.80;99.90
16477;DHT22;8349;50.928;6.376;2023-02-21T19:00:25;7.90;99.90
16477;DHT22;8349;50.928;6.376;2023-02-21T19:02:52;7.90;99.90
16477;DHT22;8349;50.928;6.376;2023-02-21T19:05:19;7.90;99.90
16477;DHT22;8349;50.928;6.376;2023-02-21T19:07:47;8.00;99.90
16477;DHT22;8349;50.928;6.376;2023-02-21T19:10:14;8.00;99.90
16477;DHT22;8349;50.928;6.376;2023-02-21T19:12:41;8.00;99.90
16477;DHT22;8349;50.928;6.376;2023-02-21T19:15:09;8.10;99.90
16477;DHT22;8349;50.928;6.376;2023-02-21T19:17:36;8.10;99.90
16477;DHT22;8349;50.928;6.376;2023-02-21T19:20:03;8.20;99.90
16477;DHT22;8349;50.928;6.376;2023-02-21T19:22:33;8.20;99.90
16477;DHT22;8349;50.928;6.376;2023-02-21T19:25:00;8.20;99.90
16477;DHT22;8349;50.928;6.376;2023-02-21T19:27:27;8.20;99.90
16477;DHT22;8349;50.928;6.376;2023-02-21T19:29:53;8.30;99.90
16477;DHT22;8349;50.928;6.376;2023-02-21T19:32:22;8.30;99.90
16477;DHT22;8349;50.928;6.376;2023-02-21T19:34:49;8.30;99.90
16477;DHT22;8349;50.928;6.376;2023-02-21T19:37:16;8.30;99.90
16477;DHT22;8349;50.928;6.376;2023-02-21T19:39:43;8.30;99.90
16477;DHT22;8349;50.928;6.376;2023-02-21T19:42:10;8.20;99.90
16477;DHT22;8349;50.928;6.376;2023-02-21T19:44:36;8.20;99.90
16477;DHT22;8349;50.928;6.376;2023-02-21T19:47:03;8.20;99.90
16477;DHT22;8349;50.928;6.376;2023-02-21T19:49:31;8.10;99.90
16477;DHT22;8349;50.928;6.376;2023-02-21T19:51:58;8.20;99.90
16477;DHT22;8349;50.928;6.376;2023-02-21T19:54:25;8.20;99.90
16477;DHT22;8349;50.928;6.376;2023-02-21T19:56:54;8.20;99.90
16477;DHT22;8349;50.928;6.376;2023-02-21T19:59:21;8.20;99.90
16477;DHT22;8349;50.928;6.376;2023-02-21T20:01:49;8.20;99.90
16477;DHT22;8349;50.928;6.376;2023-02-21T20:04:16;8.10;99.90
16477;DHT22;8349;50.928;6.376;2023-02-21T20:06:45;8.00;99.90
16477;DHT22;8349;50.928;6.376;2023-02-21T20:09:12;8.00;99.90
16477;DHT22;8349;50.928;6.376;2023-02-21T20:11:39;8.00;99.90
16477;DHT22;8349;50.928;6.376;2023-02-21T20:14:06;7.90;99.90
16477;DHT22;8349;50.928;6.376;2023-02-21T20:16:35;7.90;99.90
16477;DHT22;8349;50.928;6.376;2023-02-21T20:19:02;7.90;99.90
16477;DHT22;8349;50.928;6.376;2023-02-21T20:21:29;7.90;99.90